Time;durP1;ratioP1;P1;durP2;ratioP2;P2;SDS_P1;SDS_P2;PMS_P1;PMS_P2;Temp;Humidity;BMP_temperature;BMP_pressure;BME280_temperature;BME280_humidity;BME280_pressure;Samples;Min_cycle;Max_cycle;Signal;HPM_P1;HPM_P2
2021/01/30 00:00:40;;;;;;;3.27;2.93;;;;;;;-1.93;100.00;98603.00;1861416;77;21782;-80
2021/01/30 00:03:11;;;;;;;7.87;3.13;;;;;;;-1.95;100.00;98614.67;1861236;77;20973;-80
2021/01/30 00:05:38;;;;;;;6.13;4.43;;;;;;;-1.96;100.00;98605.06;1861402;77;21514;-80
2021/01/30 00:08:09;;;;;;;4.17;3.03;;;;;;;-1.99;100.00;98610.11;1861314;76;21131;-80
2021/01/30 00:10:36;;;;;;;4.77;3.03;;;;;;;-2.01;100.00;98604.59;1807703;79;20930;-80
2021/01/30 00:13:05;;;;;;;3.23;2.33;;;;;;;-2.05;100.00;98611.95;1826669;78;21702;-80
2021/01/30 00:15:33;;;;;;;2.60;2.40;;;;;;;-2.06;100.00;98613.40;1807841;79;21585;-80
2021/01/30 00:18:01;;;;;;;5.77;4.17;;;;;;;-2.09;100.00;98618.45;1826632;78;20950;-81
2021/01/30 00:20:32;;;;;;;4.47;3.00;;;;;;;-2.11;100.00;98618.60;1807667;79;20938;-80
2021/01/30 00:23:01;;;;;;;4.70;3.00;;;;;;;-2.12;100.00;98627.99;1826719;78;21028;-81
2021/01/30 00:25:31;;;;;;;6.20;3.33;;;;;;;-2.15;100.00;98631.72;1807866;79;22520;-80
2021/01/30 00:28:00;;;;;;;7.07;3.77;;;;;;;-2.18;100.00;98637.28;1826738;78;20942;-80
2021/01/30 00:30:30;;;;;;;4.67;2.63;;;;;;;-2.20;100.00;98645.81;1809447;79;20981;-80
2021/01/30 00:32:59;;;;;;;4.30;3.23;;;;;;;-2.22;100.00;98640.30;1826697;78;20930;-79
2021/01/30 00:35:30;;;;;;;4.43;2.97;;;;;;;-2.24;100.00;98636.94;1808383;79;21006;-80
2021/01/30 00:37:58;;;;;;;7.07;3.17;;;;;;;-2.28;100.00;98645.61;1807103;78;21192;-79
2021/01/30 00:40:26;;;;;;;4.47;3.00;;;;;;;-2.31;100.00;98643.20;1793080;80;20949;-80
2021/01/30 00:42:54;;;;;;;3.07;1.80;;;;;;;-2.33;100.00;98645.14;1792647;80;20993;-79
2021/01/30 00:45:24;;;;;;;2.47;2.10;;;;;;;-2.38;100.00;98653.44;1792770;80;21533;-80
2021/01/30 00:47:54;;;;;;;5.33;2.87;;;;;;;-2.41;100.00;98654.16;1792687;80;21013;-80
2021/01/30 00:50:23;;;;;;;5.33;2.30;;;;;;;-2.48;100.00;98657.77;1792700;80;21252;-80
2021/01/30 00:52:51;;;;;;;5.97;3.90;;;;;;;-2.53;100.00;98666.59;1792605;80;20985;-81
2021/01/30 00:55:22;;;;;;;5.40;2.07;;;;;;;-2.56;100.00;98669.47;1668792;85;21603;-80
2021/01/30 00:57:51;;;;;;;3.83;3.17;;;;;;;-2.58;100.00;98672.73;1668749;86;21176;-81
2021/01/30 01:00:23;;;;;;;4.07;2.77;;;;;;;-2.60;100.00;98675.95;1668777;86;20989;-80
2021/01/30 01:02:52;;;;;;;4.37;3.77;;;;;;;-2.62;100.00;98683.17;1670034;85;22267;-80
2021/01/30 01:05:21;;;;;;;4.00;3.07;;;;;;;-2.65;100.00;98676.82;1719913;83;21025;-80
2021/01/30 01:07:49;;;;;;;4.37;2.97;;;;;;;-2.66;100.00;98681.25;1719844;83;21068;-80
2021/01/30 01:10:20;;;;;;;5.73;3.97;;;;;;;-2.68;100.00;98685.34;1719949;83;21090;-81
2021/01/30 01:12:49;;;;;;;4.97;3.43;;;;;;;-2.71;100.00;98696.64;1720112;83;20955;-80
2021/01/30 01:15:18;;;;;;;9.63;5.33;;;;;;;-2.75;100.00;98693.89;1720479;83;21580;-80
2021/01/30 01:17:47;;;;;;;9.37;3.80;;;;;;;-2.78;100.00;98708.21;1722373;83;20983;-80
2021/01/30 01:20:19;;;;;;;8.43;4.53;;;;;;;-2.79;100.00;98706.52;1722658;83;20999;-80
2021/01/30 01:22:47;;;;;;;8.23;5.17;;;;;;;-2.79;100.00;98711.80;1721948;83;22365;-80
2021/01/30 01:25:18;;;;;;;8.33;4.43;;;;;;;-2.80;100.00;98711.91;1720658;83;21050;-80
2021/01/30 01:27:45;;;;;;;6.20;4.00;;;;;;;-2.82;100.00;98716.49;1720368;83;21204;-80
2021/01/30 01:30:14;;;;;;;3.00;2.80;;;;;;;-2.84;100.00;98715.28;1717331;83;20999;-80
2021/01/30 01:32:42;;;;;;;7.20;3.97;;;;;;;-2.86;100.00;98713.23;1714811;83;21051;-80
2021/01/30 01:35:17;;;;;;;9.20;4.87;;;;;;;-2.89;100.00;98709.02;1714599;82;21322;-80
2021/01/30 01:37:46;;;;;;;10.60;4.97;;;;;;;-2.90;100.00;98719.73;1717618;83;21367;-79
2021/01/30 01:40:15;;;;;;;8.00;4.40;;;;;;;-2.91;100.00;98711.42;1717515;83;21519;-79
2021/01/30 01:42:43;;;;;;;2.87;2.43;;;;;;;-2.90;100.00;98716.61;1717386;83;21076;-80
2021/01/30 01:45:14;;;;;;;6.97;4.00;;;;;;;-2.90;100.00;98713.13;1717370;83;21602;-79
2021/01/30 01:47:45;;;;;;;7.87;4.10;;;;;;;-2.91;100.00;98714.08;1717287;83;21696;-81
2021/01/30 01:50:39;;;;;;;8.87;5.23;;;;;;;-2.92;100.00;98718.53;1717290;83;21569;-79
2021/01/30 01:53:14;;;;;;;4.10;3.00;;;;;;;-2.92;100.00;98716.34;1717574;83;22083;-79
2021/01/30 01:55:55;;;;;;;4.97;3.03;;;;;;;-2.89;100.00;98709.50;1852365;76;22846;-79
2021/01/30 01:58:24;;;;;;;8.17;3.90;;;;;;;-2.93;100.00;98713.35;1783113;80;21541;-79
2021/01/30 02:00:52;;;;;;;4.80;2.97;;;;;;;-2.94;100.00;98714.30;1855634;77;22590;-79
2021/01/30 02:03:21;;;;;;;3.40;2.83;;;;;;;-2.95;100.00;98718.76;1843237;77;21229;-80
2021/01/30 02:05:49;;;;;;;2.70;2.47;;;;;;;-2.96;100.00;98719.70;1822043;78;20910;-81
2021/01/30 02:08:20;;;;;;;5.80;4.10;;;;;;;-2.97;100.00;98720.68;1821554;78;20886;-80
2021/01/30 02:10:50;;;;;;;3.27;2.97;;;;;;;-2.97;100.00;98725.14;1820419;78;20921;-80
2021/01/30 02:13:50;;;;;;;8.20;4.33;;;;;;;-3.00;100.00;98729.33;1820485;78;22122;-81
2021/01/30 02:16:47;;;;;;;9.40;5.50;;;;;;;-3.03;100.00;98717.66;1819337;78;20930;-77
2021/01/30 02:19:21;;;;;;;5.67;3.93;;;;;;;-3.03;100.00;98720.30;1820286;78;21016;-80
2021/01/30 02:22:17;;;;;;;11.37;6.07;;;;;;;-3.04;100.00;98714.67;1816984;78;20938;-80
2021/01/30 02:25:27;;;;;;;10.70;5.37;;;;;;;-3.06;100.00;98722.72;1787549;80;21424;-80
2021/01/30 02:28:17;;;;;;;8.07;4.57;;;;;;;-3.06;100.00;98722.72;1787542;80;21142;-80
2021/01/30 02:31:29;;;;;;;12.77;5.87;;;;;;;-3.04;100.00;98730.05;1787430;80;21012;-80
2021/01/30 02:34:08;;;;;;;13.33;7.03;;;;;;;-3.04;100.00;98731.86;1787552;80;20902;-80
2021/01/30 02:36:51;;;;;;;10.10;6.53;;;;;;;-3.01;100.00;98728.95;1787676;80;20961;-80
2021/01/30 02:39:27;;;;;;;7.17;5.03;;;;;;;-3.01;100.00;98724.53;1787637;80;20902;-80
2021/01/30 02:42:17;;;;;;;10.33;6.40;;;;;;;-2.99;100.00;98734.51;1787748;80;21884;-81
2021/01/30 02:44:59;;;;;;;8.60;4.93;;;;;;;-2.97;100.00;98737.88;1789614;80;20997;-81
2021/01/30 02:47:43;;;;;;;9.23;5.43;;;;;;;-2.93;100.00;98727.91;1807925;77;23957;-80
2021/01/30 02:50:18;;;;;;;6.63;4.27;;;;;;;-2.93;100.00;98737.16;1768940;81;20958;-80
2021/01/30 02:52:48;;;;;;;6.93;4.30;;;;;;;-2.92;100.00;98737.50;1769138;81;22189;-80
2021/01/30 02:55:15;;;;;;;7.40;5.10;;;;;;;-2.92;100.00;98752.92;1768907;81;20924;-80
2021/01/30 02:57:44;;;;;;;10.80;5.47;;;;;;;-2.91;100.00;98755.91;1747853;81;20934;-79
2021/01/30 03:00:16;;;;;;;10.73;5.97;;;;;;;-2.88;100.00;98759.65;1768834;81;21432;-80
2021/01/30 03:02:44;;;;;;;6.33;4.63;;;;;;;-2.86;100.00;98759.53;1768929;81;21540;-80
2021/01/30 03:05:13;;;;;;;11.93;5.57;;;;;;;-2.82;100.00;98758.82;1701893;84;21937;-79
2021/01/30 03:08:14;;;;;;;10.97;5.07;;;;;;;-2.79;100.00;98767.86;1767376;81;20943;-80
2021/01/30 03:11:15;;;;;;;13.33;7.50;;;;;;;-2.75;100.00;98758.22;1845770;76;24890;-81
2021/01/30 03:13:59;;;;;;;10.37;5.77;;;;;;;-2.78;100.00;98762.45;1829118;78;20965;-80
2021/01/30 03:16:29;;;;;;;11.27;6.70;;;;;;;-2.77;100.00;98768.57;1838393;78;21277;-81
2021/01/30 03:19:07;;;;;;;10.50;5.13;;;;;;;-2.77;100.00;98767.25;1838241;78;20973;-80
2021/01/30 03:21:35;;;;;;;10.37;6.37;;;;;;;-2.77;100.00;98771.22;1835929;78;21005;-81
2021/01/30 03:24:04;;;;;;;13.07;6.53;;;;;;;-2.75;100.00;98761.36;1838408;78;20961;-80
2021/01/30 03:26:33;;;;;;;8.83;4.53;;;;;;;-2.74;100.00;98764.38;1838352;76;21020;-80
2021/01/30 03:29:01;;;;;;;16.17;6.00;;;;;;;-2.74;100.00;98765.70;1838262;78;21657;-81
2021/01/30 03:31:29;;;;;;;9.13;5.33;;;;;;;-2.71;100.00;98764.12;1838372;78;20925;-81
2021/01/30 03:33:58;;;;;;;8.90;5.60;;;;;;;-2.69;100.00;98763.55;1838357;76;21004;-81
2021/01/30 03:36:26;;;;;;;10.53;5.87;;;;;;;-2.67;100.00;98765.59;1838279;76;21008;-81
2021/01/30 03:38:53;;;;;;;6.60;4.70;;;;;;;-2.62;100.00;98758.59;1834910;76;21004;-81
2021/01/30 03:41:21;;;;;;;5.00;3.77;;;;;;;-2.61;100.00;98761.62;1815875;79;21189;-81
2021/01/30 03:43:49;;;;;;;3.33;3.10;;;;;;;-2.57;100.00;98759.09;1815979;79;20969;-81
2021/01/30 03:46:17;;;;;;;8.67;4.67;;;;;;;-2.55;100.00;98759.34;1815818;79;21001;-81
2021/01/30 03:48:45;;;;;;;7.00;4.17;;;;;;;-2.54;100.00;98754.88;1815944;79;20980;-81
2021/01/30 03:51:14;;;;;;;11.87;6.50;;;;;;;-2.52;100.00;98748.49;1815940;79;20996;-81
2021/01/30 03:53:42;;;;;;;6.50;4.43;;;;;;;-2.48;100.00;98759.69;1815865;79;20996;-82
2021/01/30 03:56:10;;;;;;;7.80;3.73;;;;;;;-2.46;100.00;98762.22;1815868;79;20940;-81
2021/01/30 03:58:40;;;;;;;3.90;3.13;;;;;;;-2.44;100.00;98759.83;1815970;79;20984;-82
2021/01/30 04:01:07;;;;;;;8.90;4.73;;;;;;;-2.42;100.00;98757.06;1815963;79;20999;-82
2021/01/30 04:03:35;;;;;;;4.97;3.10;;;;;;;-2.41;100.00;98762.70;1816004;79;20979;-81
2021/01/30 04:06:04;;;;;;;6.97;3.97;;;;;;;-2.40;100.00;98756.46;1815959;79;21475;-81
2021/01/30 04:08:32;;;;;;;12.73;6.93;;;;;;;-2.38;100.00;98765.13;1806122;78;21023;-81
2021/01/30 04:11:00;;;;;;;5.77;3.60;;;;;;;-2.36;100.00;98772.45;1736338;81;20942;-81
2021/01/30 04:13:27;;;;;;;12.53;6.73;;;;;;;-2.35;100.00;98771.02;1741733;82;21044;-81
2021/01/30 04:15:55;;;;;;;6.33;4.93;;;;;;;-2.32;100.00;98769.92;1759616;81;20963;-81
2021/01/30 04:18:24;;;;;;;7.73;4.40;;;;;;;-2.34;100.00;98770.53;1736393;82;21579;-81
2021/01/30 04:20:51;;;;;;;5.20;3.77;;;;;;;-2.33;100.00;98778.35;1741616;82;21037;-81
2021/01/30 04:23:19;;;;;;;2.93;2.47;;;;;;;-2.30;100.00;98782.09;1759429;81;20930;-82
2021/01/30 04:25:47;;;;;;;5.17;3.20;;;;;;;-2.31;100.00;98772.94;1736029;82;20985;-81
2021/01/30 04:28:15;;;;;;;5.43;3.60;;;;;;;-2.32;100.00;98769.45;1741138;82;20996;-82
2021/01/30 04:30:42;;;;;;;5.97;3.27;;;;;;;-2.31;100.00;98775.09;1741117;82;21370;-81
2021/01/30 04:33:10;;;;;;;9.23;4.63;;;;;;;-2.32;100.00;98773.43;1740942;82;21371;-80
2021/01/30 04:35:39;;;;;;;5.03;3.30;;;;;;;-2.32;100.00;98772.11;1758980;81;21486;-79
2021/01/30 04:38:07;;;;;;;5.07;3.57;;;;;;;-2.33;100.00;98764.28;1736113;82;20985;-81
2021/01/30 04:40:39;;;;;;;4.10;3.07;;;;;;;-2.32;100.00;98763.30;1741228;82;21040;-80
2021/01/30 04:43:21;;;;;;;5.57;3.67;;;;;;;-2.32;100.00;98762.84;1759115;81;21162;-81
2021/01/30 04:46:14;;;;;;;9.07;4.57;;;;;;;-2.35;100.00;98768.37;1759201;81;21498;-81
2021/01/30 04:48:56;;;;;;;7.07;4.00;;;;;;;-2.38;100.00;98773.89;1735914;82;21016;-81
2021/01/30 04:52:17;;;;;;;4.03;3.60;;;;;;;-2.40;100.00;98775.83;1719147;83;21066;-81
2021/01/30 04:55:12;;;;;;;3.53;3.23;;;;;;;-2.42;100.00;98768.48;1740966;81;20988;-81
2021/01/30 04:57:45;;;;;;;8.43;4.00;;;;;;;-2.44;100.00;98761.61;1678671;85;22718;-80
2021/01/30 05:00:29;;;;;;;9.67;4.93;;;;;;;-2.46;100.00;98764.86;1680760;85;20988;-81
2021/01/30 05:03:27;;;;;;;3.57;3.07;;;;;;;-2.49;100.00;98767.28;1697926;84;21009;-81
2021/01/30 05:05:58;;;;;;;5.33;3.23;;;;;;;-2.51;100.00;98770.53;1691738;84;21025;-81
2021/01/30 05:08:30;;;;;;;6.57;3.90;;;;;;;-2.54;100.00;98767.63;1687672;84;21045;-80
2021/01/30 05:11:15;;;;;;;3.90;2.53;;;;;;;-2.53;100.00;98756.59;1812600;79;27229;-82
2021/01/30 05:13:57;;;;;;;4.10;2.60;;;;;;;-2.59;100.00;98767.14;1705441;83;20933;-81
2021/01/30 05:16:50;;;;;;;6.43;3.53;;;;;;;-2.63;100.00;98760.90;1708589;84;21212;-80
2021/01/30 05:19:17;;;;;;;6.33;3.22;;;;;;;-2.69;100.00;98766.19;1643937;87;21021;-82
2021/01/30 05:21:51;;;;;;;4.93;3.70;;;;;;;-2.72;100.00;98765.93;1655495;86;20997;-81
2021/01/30 05:24:27;;;;;;;8.57;4.13;;;;;;;-2.70;100.00;98768.46;1890864;76;26378;-80
2021/01/30 05:27:25;;;;;;;8.20;4.23;;;;;;;-2.75;100.00;98774.09;1861750;77;21078;-80
2021/01/30 05:30:15;;;;;;;6.60;4.57;;;;;;;-2.77;100.00;98765.92;1860902;77;21622;-80
2021/01/30 05:33:16;;;;;;;6.07;3.53;;;;;;;-2.78;100.00;98758.94;1784200;80;21063;-80
2021/01/30 05:36:23;;;;;;;4.47;3.47;;;;;;;-2.75;100.00;98758.22;1811525;77;26886;-82
2021/01/30 05:39:33;;;;;;;2.67;2.47;;;;;;;-2.78;100.00;98761.58;1777971;80;20999;-80
2021/01/30 05:42:52;;;;;;;7.23;4.30;;;;;;;-2.79;100.00;98760.75;1727620;83;21386;-81
2021/01/30 05:45:40;;;;;;;4.73;3.10;;;;;;;-2.78;100.00;98757.61;1725032;79;21064;-80
2021/01/30 05:48:18;;;;;;;6.70;4.60;;;;;;;-2.79;100.00;98762.08;1727630;83;21588;-80
2021/01/30 05:50:54;;;;;;;6.07;3.97;;;;;;;-2.78;100.00;98755.83;1701555;83;21076;-81
2021/01/30 05:53:25;;;;;;;5.70;3.53;;;;;;;-2.77;100.00;98754.02;1727768;83;21021;-80
2021/01/30 05:55:54;;;;;;;6.63;4.23;;;;;;;-2.78;100.00;98755.83;1725166;83;21308;-81
2021/01/30 05:58:24;;;;;;;5.57;3.23;;;;;;;-2.78;100.00;98758.48;1703653;83;21051;-80
2021/01/30 06:01:17;;;;;;;9.70;4.90;;;;;;;-2.79;100.00;98756.78;1728191;83;21000;-81
2021/01/30 06:04:03;;;;;;;8.03;4.63;;;;;;;-2.70;100.00;98762.68;1882049;75;26920;-81
2021/01/30 06:06:35;;;;;;;4.97;3.23;;;;;;;-2.67;100.00;98765.09;1861994;77;20937;-80
2021/01/30 06:09:14;;;;;;;9.05;5.30;;;;;;;-2.59;100.00;98762.34;1838699;77;21179;-81
2021/01/30 06:11:47;;;;;;;7.43;4.40;;;;;;;-2.56;100.00;98764.75;1811289;79;21556;-69
2021/01/30 06:14:37;;;;;;;7.77;4.80;;;;;;;-2.53;100.00;98773.30;1776958;79;21033;-67
2021/01/30 06:17:27;;;;;;;14.20;6.00;;;;;;;-2.47;100.00;98777.27;1821580;76;27826;-67
2021/01/30 06:20:28;;;;;;;6.97;4.30;;;;;;;-2.46;100.00;98772.34;1742345;82;20989;-83
2021/01/30 06:23:12;;;;;;;6.50;4.43;;;;;;;-2.39;100.00;98771.36;1767466;81;22154;-82
2021/01/30 06:25:43;;;;;;;4.67;3.35;;;;;;;-2.35;100.00;98768.37;1740326;82;20948;-84
2021/01/30 06:28:25;;;;;;;5.37;3.70;;;;;;;-2.32;100.00;98772.56;1700304;84;20949;-86
2021/01/30 06:30:55;;;;;;;8.80;4.27;;;;;;;-2.32;100.00;98769.92;1729769;83;20981;-81
2021/01/30 06:33:30;;;;;;;4.20;2.80;;;;;;;-2.30;100.00;98781.26;1730015;83;21043;-85
2021/01/30 06:36:22;;;;;;;6.70;4.63;;;;;;;-2.29;100.00;98778.95;1692986;84;21825;-84
2021/01/30 06:39:12;;;;;;;8.07;4.53;;;;;;;-2.20;100.00;98778.72;1807868;77;25347;-78
2021/01/30 06:41:41;;;;;;;3.43;3.13;;;;;;;-2.17;100.00;98781.13;1769859;80;20994;-83
2021/01/30 06:44:30;;;;;;;5.63;3.67;;;;;;;-2.06;100.00;98778.95;1770336;81;21813;-82
2021/01/30 06:47:16;;;;;;;9.03;3.90;;;;;;;-1.96;100.00;98766.17;1770787;81;20950;-85
2021/01/30 06:49:52;;;;;;;8.30;4.37;;;;;;;-1.82;100.00;98769.53;1719156;83;21037;-84
2021/01/30 06:52:28;;;;;;;6.83;4.33;;;;;;;-1.72;100.00;98771.78;1682338;85;21586;-81
2021/01/30 06:55:10;;;;;;;7.77;4.23;;;;;;;-1.65;100.00;98776.94;1716384;83;21016;-84
2021/01/30 06:58:02;;;;;;;7.60;4.23;;;;;;;-1.62;100.00;98779.34;1682474;85;22231;-85
2021/01/30 07:00:36;;;;;;;8.80;4.93;;;;;;;-1.57;100.00;98782.97;1718951;83;21100;-85
2021/01/30 07:03:32;;;;;;;7.37;4.20;;;;;;;-1.54;100.00;98786.20;1682571;85;20998;-82
2021/01/30 07:06:18;;;;;;;9.80;3.73;;;;;;;-1.49;100.00;98775.20;1719033;83;21077;-84
2021/01/30 07:09:25;;;;;;;6.77;4.47;;;;;;;-1.32;100.00;98768.53;1841432;76;24821;-80
2021/01/30 07:12:10;;;;;;;8.27;4.97;;;;;;;-1.27;100.00;98771.65;1794199;79;20988;-81
2021/01/30 07:15:10;;;;;;;7.77;4.07;;;;;;;-1.15;100.00;98773.78;1799088;79;22222;-81
2021/01/30 07:18:08;;;;;;;6.40;4.53;;;;;;;-1.05;100.00;98773.34;1783731;79;21024;-84
2021/01/30 07:20:55;;;;;;;6.80;4.23;;;;;;;-0.93;100.00;98771.97;1800189;79;20981;-83
2021/01/30 07:23:57;;;;;;;7.90;4.47;;;;;;;-0.82;100.00;98767.42;1717831;83;20969;-84
2021/01/30 07:26:45;;;;;;;6.23;3.57;;;;;;;-0.74;100.00;98765.47;1763615;80;20933;-78
2021/01/30 07:29:49;;;;;;;7.27;4.53;;;;;;;-0.65;100.00;98759.37;1843938;77;26675;-78
2021/01/30 07:32:58;;;;;;;8.27;5.20;;;;;;;-0.64;100.00;98765.05;1793792;78;20976;-80
2021/01/30 07:35:31;;;;;;;6.33;4.30;;;;;;;-0.61;100.00;98771.40;1748985;81;21344;-80
2021/01/30 07:38:25;;;;;;;15.40;5.75;;;;;;;-0.63;100.00;98765.38;1757150;80;21112;-79
2021/01/30 07:41:00;;;;;;;9.03;4.60;;;;;;;-0.60;100.00;98764.30;1763679;81;20989;-81
2021/01/30 07:43:36;;;;;;;7.73;4.90;;;;;;;-0.58;100.00;98768.98;1773660;81;21005;-79
2021/01/30 07:46:12;;;;;;;7.60;4.53;;;;;;;-0.56;100.00;98760.39;1758096;81;21021;-79
2021/01/30 07:48:52;;;;;;;7.23;4.33;;;;;;;-0.52;100.00;98767.61;1759274;81;21424;-80
2021/01/30 07:51:31;;;;;;;13.37;5.93;;;;;;;-0.49;100.00;98764.70;1770918;81;20969;-81
2021/01/30 07:53:59;;;;;;;4.87;3.73;;;;;;;-0.47;100.00;98752.95;1769047;80;21030;-82
2021/01/30 07:56:48;;;;;;;8.80;5.00;;;;;;;-0.47;100.00;98748.14;1740135;81;20963;-81
2021/01/30 07:59:35;;;;;;;9.63;5.93;;;;;;;-0.44;100.00;98754.03;1772980;79;21020;-81
2021/01/30 08:03:04;;;;;;;14.33;6.90;;;;;;;-0.39;100.00;98758.46;1914189;74;26711;-81
2021/01/30 08:05:49;;;;;;;6.63;4.77;;;;;;;-0.36;100.00;98756.01;1860019;75;21410;-82
2021/01/30 08:08:41;;;;;;;7.17;4.47;;;;;;;-0.31;100.00;98760.94;1844128;75;21320;-85
2021/01/30 08:11:21;;;;;;;10.10;4.50;;;;;;;-0.26;100.00;98754.73;1873847;75;20989;-80
2021/01/30 08:14:32;;;;;;;9.53;5.17;;;;;;;-0.20;100.00;98761.66;1872188;75;20942;-80
2021/01/30 08:17:44;;;;;;;7.20;3.73;;;;;;;-0.13;100.00;98763.30;1814288;78;20957;-80
2021/01/30 08:20:41;;;;;;;7.57;4.23;;;;;;;-0.06;100.00;98754.31;1798407;79;21060;-80
2021/01/30 08:23:41;;;;;;;12.53;6.50;;;;;;;0.02;100.00;98762.47;1813709;79;21429;-81
2021/01/30 08:26:29;;;;;;;6.00;4.30;;;;;;;0.13;100.00;98740.25;1807256;77;26687;-78
2021/01/30 08:29:41;;;;;;;11.47;6.00;;;;;;;0.13;100.00;98749.55;1759401;80;21424;-79
2021/01/30 08:32:30;;;;;;;5.80;3.50;;;;;;;0.17;100.00;98753.11;1739263;81;21932;-82
2021/01/30 08:35:22;;;;;;;10.80;5.30;;;;;;;0.21;100.00;98752.34;1754540;81;21048;-76
2021/01/30 08:38:10;;;;;;;8.17;4.50;;;;;;;0.26;100.00;98747.96;1763647;81;21042;-81
2021/01/30 08:40:54;;;;;;;12.07;6.63;;;;;;;0.28;100.00;98739.36;1697057;83;21017;-80
2021/01/30 08:43:43;;;;;;;6.83;4.67;;;;;;;0.36;100.00;98735.03;1832986;77;27515;-82
2021/01/30 08:46:32;;;;;;;;;;;;;;;0.33;100.00;98734.47;1793459;79;21030;-80
2021/01/30 08:49:15;;;;;;;9.33;4.43;;;;;;;0.31;100.00;98732.44;1709965;82;21680;-80
2021/01/30 08:51:55;;;;;;;6.23;3.40;;;;;;;0.28;100.00;98726.06;1696259;83;20986;-81
2021/01/30 08:54:43;;;;;;;6.87;4.93;;;;;;;0.31;100.00;98723.13;1873676;75;26797;-75
2021/01/30 08:57:37;;;;;;;6.57;4.27;;;;;;;0.27;100.00;98722.57;1846035;77;21024;-74
2021/01/30 09:00:07;;;;;;;;;;;;;;;0.31;100.00;98723.13;1836018;77;21650;-74
2021/01/30 09:02:41;;;;;;;7.67;4.43;;;;;;;0.36;100.00;98720.41;1839030;77;20155;-75
2021/01/30 09:05:31;;;;;;;8.70;4.63;;;;;;;0.38;100.00;98712.30;1837968;77;21286;-74
2021/01/30 09:08:22;;;;;;;11.77;5.97;;;;;;;0.38;100.00;98712.30;1794420;78;20978;-74
2021/01/30 09:10:50;;;;;;;10.13;5.57;;;;;;;0.36;100.00;98709.77;1798104;79;21582;-73
2021/01/30 09:13:22;;;;;;;8.73;5.17;;;;;;;0.35;100.00;98706.77;1801616;79;21373;-76
2021/01/30 09:15:57;;;;;;;5.83;4.13;;;;;;;0.35;100.00;98714.75;1804817;79;21622;-73
2021/01/30 09:18:36;;;;;;;10.00;4.30;;;;;;;0.36;100.00;98715.09;1798954;79;21042;-73
2021/01/30 09:21:12;;;;;;;12.77;4.80;;;;;;;0.37;100.00;98708.80;1800085;79;21094;-74
2021/01/30 09:24:22;;;;;;;10.17;4.50;;;;;;;0.43;100.00;98703.41;1794789;79;21080;-74
2021/01/30 09:27:09;;;;;;;8.37;3.83;;;;;;;0.49;100.00;98700.18;1840995;76;26833;-74
2021/01/30 09:29:47;;;;;;;10.57;5.37;;;;;;;0.49;100.00;98704.67;1796351;79;20949;-74
2021/01/30 09:32:22;;;;;;;10.50;6.77;;;;;;;0.53;100.00;98696.75;1791136;79;21368;-75
2021/01/30 09:35:10;;;;;;;8.10;5.23;;;;;;;0.59;100.00;98694.05;1806834;78;20972;-74
2021/01/30 09:37:42;;;;;;;7.23;5.07;;;;;;;0.64;100.00;98683.80;1785158;79;20969;-75
2021/01/30 09:40:27;;;;;;;10.03;5.90;;;;;;;0.72;100.00;98691.92;1811288;79;20984;-74
2021/01/30 09:43:08;;;;;;;13.67;6.50;;;;;;;0.81;100.00;98684.91;1789110;79;20932;-73
2021/01/30 09:45:37;;;;;;;10.10;6.07;;;;;;;0.87;100.00;98679.87;1810840;79;21631;-75
2021/01/30 09:57:09;;;;;;;11.33;5.90;;;;;;;1.06;100.00;98664.36;1761411;81;20997;-75
2021/01/30 09:59:44;;;;;;;12.07;5.13;;;;;;;1.14;100.00;98662.29;1784438;77;21001;-73
2021/01/30 10:02:21;;;;;;;11.70;5.33;;;;;;;1.22;100.00;98649.58;1784531;79;21430;-73
2021/01/30 10:05:13;;;;;;;5.57;4.20;;;;;;;1.25;100.00;98643.97;1776205;80;20953;-75
2021/01/30 10:07:43;;;;;;;8.18;4.35;;;;;;;1.27;100.00;98649.98;1723322;82;21143;-76
2021/01/30 10:10:30;;;;;;;8.83;4.50;;;;;;;1.37;100.00;98641.97;1738839;80;21618;-74
2021/01/30 10:12:59;;;;;;;7.97;4.63;;;;;;;1.39;100.00;98634.16;1732202;82;21436;-75
2021/01/30 10:15:31;;;;;;;8.43;4.13;;;;;;;1.42;100.00;98631.21;1746758;81;21534;-73
2021/01/30 10:18:10;;;;;;;8.10;4.63;;;;;;;1.43;100.00;98624.88;1789484;79;21582;-75
2021/01/30 10:21:02;;;;;;;9.93;5.00;;;;;;;1.45;100.00;98622.07;1801342;78;21029;-74
2021/01/30 10:23:48;;;;;;;14.47;7.07;;;;;;;1.48;100.00;98621.28;1831438;76;26785;-76
2021/01/30 10:26:23;;;;;;;16.50;8.57;;;;;;;1.46;100.00;98630.42;1804982;79;21040;-75
2021/01/30 10:29:00;;;;;;;13.87;8.07;;;;;;;1.41;100.00;98628.69;1814384;78;21218;-75
2021/01/30 10:31:38;;;;;;;9.37;5.33;;;;;;;1.38;100.00;98628.50;1768755;81;21202;-76
2021/01/30 10:34:25;;;;;;;8.00;5.30;;;;;;;1.40;100.00;98622.53;1838540;75;26873;-75
2021/01/30 10:37:05;;;;;;;16.73;8.13;;;;;;;1.38;100.00;98623.18;1802529;79;21533;-76
2021/01/30 10:39:48;;;;;;;18.20;8.10;;;;;;;1.42;100.00;98609.91;1869925;75;26832;-75
2021/01/30 10:42:22;;;;;;;11.73;6.37;;;;;;;1.42;100.00;98612.56;1846691;77;21009;-76
2021/01/30 10:45:04;;;;;;;16.57;6.90;;;;;;;1.45;100.00;98609.61;1779551;79;21196;-75
2021/01/30 10:47:33;;;;;;;11.78;6.05;;;;;;;1.49;100.00;98606.98;1783219;80;21479;-75
2021/01/30 10:50:07;;;;;;;8.70;4.97;;;;;;;1.55;100.00;98610.88;1783277;80;21073;-74
2021/01/30 10:52:35;;;;;;;14.17;6.17;;;;;;;1.58;100.00;98609.26;1780475;80;21617;-77
2021/01/30 10:55:35;;;;;;;15.30;7.23;;;;;;;1.64;100.00;98603.83;1785896;80;21108;-75
2021/01/30 10:58:29;;;;;;;14.07;7.27;;;;;;;1.67;100.00;98607.02;1788231;80;21208;-76
2021/01/30 11:01:04;;;;;;;9.28;5.25;;;;;;;1.72;100.00;98602.59;1789024;80;21028;-74
2021/01/30 11:06:49;;;;;;;11.85;5.35;;;;;;;1.79;100.00;98596.14;1873449;76;28397;-74
2021/01/30 11:09:32;;;;;;;11.07;4.90;;;;;;;1.78;100.00;98592.65;1843232;77;21539;-74
2021/01/30 11:12:17;;;;;;;9.03;5.93;;;;;;;1.83;100.00;98586.38;1862060;75;21636;-74
2021/01/30 11:14:45;;;;;;;6.80;4.40;;;;;;;1.83;100.00;98589.04;1862738;76;20969;-73
2021/01/30 11:17:31;;;;;;;8.53;4.50;;;;;;;1.85;100.00;98581.73;1868634;75;21495;-76
2021/01/30 11:19:59;;;;;;;7.53;4.53;;;;;;;1.87;100.00;98582.41;1868154;76;20982;-75
2021/01/30 11:50:30;;;;;;;12.20;5.53;;;;;;;2.20;100.00;98545.39;1840550;76;26555;-75
2021/01/30 11:53:11;;;;;;;8.23;4.70;;;;;;;2.25;100.00;98547.61;1822346;77;20987;-74
2021/01/30 11:55:39;;;;;;;11.03;4.30;;;;;;;2.29;100.00;98538.30;1824246;77;21649;-74
2021/01/30 11:58:07;;;;;;;5.13;3.90;;;;;;;2.32;100.00;98535.33;1826133;77;21073;-75
2021/01/30 12:00:35;;;;;;;8.40;4.87;;;;;;;2.33;100.00;98528.16;1818621;77;20959;-74
2021/01/30 12:03:05;;;;;;;10.13;5.00;;;;;;;2.36;100.00;98534.52;1815091;77;21072;-76
2021/01/30 12:05:33;;;;;;;7.53;3.97;;;;;;;2.37;100.00;98538.34;1831246;77;21030;-76
2021/01/30 12:08:01;;;;;;;10.80;5.03;;;;;;;2.39;100.00;98527.52;1828270;77;22641;-76
2021/01/30 12:10:30;;;;;;;7.47;3.57;;;;;;;2.40;100.00;98523.88;1780245;79;21185;-77
2021/01/30 12:13:06;;;;;;;9.83;4.00;;;;;;;2.41;100.00;98526.39;1832593;77;21012;-74
2021/01/30 12:15:40;;;;;;;5.43;3.47;;;;;;;2.42;100.00;98516.54;1820064;78;21075;-73
2021/01/30 12:18:10;;;;;;;5.53;3.73;;;;;;;2.46;100.00;98517.89;1819717;78;21087;-76
2021/01/30 12:20:37;;;;;;;4.50;3.10;;;;;;;2.49;100.00;98508.75;1821140;78;21182;-76
2021/01/30 12:23:06;;;;;;;8.47;4.17;;;;;;;2.52;100.00;98514.61;1821129;78;21012;-76
2021/01/30 12:25:34;;;;;;;8.73;4.47;;;;;;;2.55;100.00;98511.64;1815620;78;20974;-77
2021/01/30 12:28:03;;;;;;;7.70;4.40;;;;;;;2.58;100.00;98511.81;1809635;79;21171;-74
2021/01/30 12:30:34;;;;;;;9.70;4.30;;;;;;;2.59;100.00;98501.48;1809813;79;20946;-74
2021/01/30 12:33:04;;;;;;;6.77;4.33;;;;;;;2.62;100.00;98509.16;1809982;79;21196;-73
2021/01/30 12:35:33;;;;;;;12.27;5.73;;;;;;;2.65;100.00;98499.51;1810015;79;21287;-76
2021/01/30 12:38:01;;;;;;;10.73;5.50;;;;;;;2.68;100.00;98503.20;1810965;78;20993;-74
2021/01/30 12:40:38;;;;;;;12.90;6.00;;;;;;;2.72;100.00;98499.20;1824296;78;21043;-74
2021/01/30 12:43:09;;;;;;;12.90;5.67;;;;;;;2.75;100.00;98498.07;1824781;78;20934;-75
2021/01/30 12:45:38;;;;;;;6.03;3.77;;;;;;;2.77;100.00;98496.08;1824717;78;21362;-76
2021/01/30 12:48:08;;;;;;;9.80;5.07;;;;;;;2.80;100.00;98495.77;1824727;78;21626;-75
2021/01/30 12:50:36;;;;;;;8.13;4.37;;;;;;;2.81;100.00;98490.75;1824721;78;20997;-74
2021/01/30 12:53:07;;;;;;;10.87;4.87;;;;;;;2.82;100.00;98491.92;1824758;78;21551;-74
2021/01/30 12:55:39;;;;;;;8.23;4.70;;;;;;;2.83;100.00;98492.75;1824742;78;21030;-74
2021/01/30 12:58:24;;;;;;;7.08;3.62;;;;;;;2.84;100.00;98491.27;1830936;77;21464;-74